Ana Sayfa
METAR-TAF:

METAR-TAF

Havaalanları :

Downtown_Memorial_Airport

Spartanburg, Güney Carolina, Amerika Birleşik Devletleri

Enlem: 34-55N, Boylam: 081-57W, yükseklik: 246 m

Güncel hava durumu gözlemi

Rapor saat 14:15 UTC de 6 dakika önce yapıldı.
Rüzgar kuzeydoğudan 8 kt
Sıcaklık 17°C
Nem 52%
Basınç 1022 hPa
Görüş mesafesi: 16.1 km
Açık gökyüzü

METAR: KSPA 241415Z AUTO 04008KT 10SM CLR 17/07 A3017 RMK AO2

Saat: 10:21 (14:21 UTC)


TAF: eksik

4.000'den fazla havaalanı için hava durumu gözlemleri ve tahminleri (METAR ve TAF raporları).

Kullanılabilir istasyonlar harita üzerinde sarı ve kırmızı noktalarla gösterilir.

İstasyonun adını görmek için fareyi noktanın üzerinde gezdirin.

Sonrasında hava gözlem ve tahminlerini görmek için tıklayın.

Haritayı değiştirmek için: yaklaştırmak için siyah artı işaretli yeşil düğmeye ve uzaklaştırmak için de eksi işaretli düğmeye hızla tıklayın; bitişik haritalar için yeşil okları kullanın.


METAR-TAF: